Time;durP1;ratioP1;P1;durP2;ratioP2;P2;SDS_P1;SDS_P2;PMS_P1;PMS_P2;Temp;Humidity;BMP_temperature;BMP_pressure;BME280_temperature;BME280_humidity;BME280_pressure;Samples;Min_cycle;Max_cycle;Signal;HPM_P1;HPM_P2
2022/11/09 00:02:04;;;;;;;;;;;;;;;2.59;80.93;101909.87;1843955;78;20274;-56
2022/11/09 00:04:32;;;;;;;;;;;;;;;2.61;81.08;101908.16;1844787;78;20568;-58
2022/11/09 00:07:00;;;;;;;;;;;;;;;2.69;80.93;101909.14;1846536;78;20170;-59
2022/11/09 00:09:28;;;;;;;;;;;;;;;2.78;80.90;101915.30;1844412;78;20436;-58
2022/11/09 00:11:56;;;;;;;;;;;;;;;2.86;80.73;101908.47;1846729;78;20158;-60
2022/11/09 00:14:24;;;;;;;;;;;;;;;2.92;80.70;101904.63;1846649;78;20150;-60
2022/11/09 00:16:52;;;;;;;;;;;;;;;2.96;80.77;101901.20;1846592;78;20127;-60
2022/11/09 00:19:20;;;;;;;;;;;;;;;3.01;80.62;101901.27;1846689;78;20166;-60
2022/11/09 00:21:47;;;;;;;;;;;;;;;3.06;80.59;101902.16;1846564;78;20154;-60
2022/11/09 00:24:15;;;;;;;;;;;;;;;3.12;80.48;101905.26;1846680;78;20123;-60
2022/11/09 00:26:43;;;;;;;;;;;;;;;3.16;80.38;101906.62;1846562;78;20201;-60
2022/11/09 00:29:11;;;;;;;;;;;;;;;3.22;80.25;101912.31;1846709;78;20149;-62
2022/11/09 00:31:39;;;;;;;;;;;;;;;3.26;80.17;101909.78;1846695;78;20301;-61
2022/11/09 00:34:07;;;;;;;;;;;;;;;3.27;80.21;101909.34;1846712;78;20119;-61
2022/11/09 00:36:35;;;;;;;;;;;;;;;3.26;80.28;101910.18;1846635;78;20195;-58
2022/11/09 00:39:03;;;;;;;;;;;;;;;3.28;80.21;101911.06;1846570;78;20182;-59
2022/11/09 00:41:32;;;;;;;;;;;;;;;3.25;80.24;101910.62;1846609;78;20107;-58
2022/11/09 00:44:00;;;;;;;;;;;;;;;3.22;80.40;101909.71;1846616;78;20149;-57
2022/11/09 00:46:28;;;;;;;;;;;;;;;3.18;80.54;101909.24;1842446;77;20107;-61
2022/11/09 00:48:56;;;;;;;;;;;;;;;3.20;80.61;101908.83;1838510;78;20119;-61
2022/11/09 00:51:24;;;;;;;;;;;;;;;3.28;80.47;101913.27;1838768;78;20111;-61
2022/11/09 00:53:53;;;;;;;;;;;;;;;3.38;80.33;101904.23;1838908;78;20132;-56
2022/11/09 00:56:21;;;;;;;;;;;;;;;3.44;80.23;101902.55;1838905;78;20370;-58
2022/11/09 00:58:51;;;;;;;;;;;;;;;3.48;80.22;101904.31;1838714;78;20186;-58
2022/11/09 01:01:18;;;;;;;;;;;;;;;3.50;80.19;101906.06;1838694;78;20194;-59
2022/11/09 01:03:46;;;;;;;;;;;;;;;3.53;80.14;101906.11;1838733;78;20182;-60
2022/11/09 01:06:21;;;;;;;;;;;;;;;3.56;80.03;101910.91;1838759;78;20107;-63
2022/11/09 01:08:50;;;;;;;;;;;;;;;3.61;79.92;101912.23;1838715;78;20186;-57
2022/11/09 01:11:19;;;;;;;;;;;;;;;3.63;79.89;101915.73;1808751;79;20126;-57
2022/11/09 01:13:47;;;;;;;;;;;;;;;3.65;79.96;101914.00;1808813;79;20185;-59
2022/11/09 01:16:20;;;;;;;;;;;;;;;3.64;80.07;101912.27;1812972;78;20288;-59
2022/11/09 01:18:47;;;;;;;;;;;;;;;3.64;80.26;101908.37;1838396;77;20197;-55
2022/11/09 01:21:16;;;;;;;;;;;;;;;3.67;80.23;101909.67;1838924;77;20405;-53
2022/11/09 01:23:44;;;;;;;;;;;;;;;3.71;80.17;101907.97;1838631;78;20123;-59
2022/11/09 01:26:12;;;;;;;;;;;;;;;3.76;80.05;101905.88;1836842;78;20150;-56
2022/11/09 01:28:41;;;;;;;;;;;;;;;3.83;79.98;101905.03;1838660;78;20182;-52
2022/11/09 01:31:10;;;;;;;;;;;;;;;3.84;79.96;101905.92;1838691;78;20150;-54
2022/11/09 01:33:38;;;;;;;;;;;;;;;3.86;79.87;101910.28;1837583;78;20108;-56
2022/11/09 01:36:08;;;;;;;;;;;;;;;3.91;79.83;101906.83;1838748;78;20154;-58
2022/11/09 01:38:36;;;;;;;;;;;;;;;3.94;79.85;101910.77;1838694;78;20366;-57
2022/11/09 01:41:08;;;;;;;;;;;;;;;3.98;79.75;101917.73;1839177;77;20563;-50
2022/11/09 01:43:36;;;;;;;;;;;;;;;4.02;79.66;101917.78;1819555;78;20111;-49
2022/11/09 01:46:07;;;;;;;;;;;;;;;4.06;79.62;101919.55;1842003;77;20185;-54
2022/11/09 01:48:43;;;;;;;;;;;;;;;4.11;79.55;101919.55;1864692;77;20149;-56
2022/11/09 01:51:15;;;;;;;;;;;;;;;4.14;79.52;101921.33;1864768;77;20127;-53
2022/11/09 01:53:45;;;;;;;;;;;;;;;4.18;79.43;101917.44;1866631;76;20221;-55
2022/11/09 01:56:15;;;;;;;;;;;;;;;4.21;79.37;101921.37;1864891;76;20173;-54
2022/11/09 01:58:50;;;;;;;;;;;;;;;4.24;79.29;101914.89;1864847;77;20126;-54
2022/11/09 02:01:19;;;;;;;;;;;;;;;4.28;79.22;101913.58;1864857;77;20110;-55
2022/11/09 02:03:48;;;;;;;;;;;;;;;4.29;79.20;101916.64;1864839;76;20152;-52
2022/11/09 02:06:23;;;;;;;;;;;;;;;4.28;79.27;101917.48;1865056;76;20530;-48
2022/11/09 02:08:52;;;;;;;;;;;;;;;4.25;79.32;101922.27;1861262;77;20123;-51
2022/11/09 02:11:21;;;;;;;;;;;;;;;4.25;79.36;101921.83;1886495;76;20230;-54
2022/11/09 02:13:51;;;;;;;;;;;;;;;4.28;79.36;101918.80;1891437;76;20152;-49
2022/11/09 02:16:19;;;;;;;;;;;;;;;4.24;79.44;101921.41;1864800;77;20204;-50
2022/11/09 02:18:59;;;;;;;;;;;;;;;4.24;79.51;101920.51;1864045;76;20196;-54
2022/11/09 02:21:29;;;;;;;;;;;;;;;4.25;79.52;101919.22;1845120;77;20123;-52
2022/11/09 02:23:58;;;;;;;;;;;;;;;4.28;79.46;101917.08;1855274;77;20146;-52
2022/11/09 02:26:27;;;;;;;;;;;;;;;4.30;79.45;101920.98;1829999;77;20137;-53
2022/11/09 02:28:57;;;;;;;;;;;;;;;4.30;79.52;101925.78;1824167;79;20143;-51
2022/11/09 02:31:26;;;;;;;;;;;;;;;4.32;79.42;101925.80;1824290;79;20406;-47
2022/11/09 02:33:55;;;;;;;;;;;;;;;4.35;79.39;101930.59;1824221;79;20148;-54
2022/11/09 02:36:23;;;;;;;;;;;;;;;4.39;79.28;101934.96;1854079;77;20157;-56
2022/11/09 02:38:52;;;;;;;;;;;;;;;4.44;79.18;101946.70;1859503;77;20393;-54
2022/11/09 02:41:21;;;;;;;;;;;;;;;4.48;79.11;101945.85;1833678;78;20235;-50
2022/11/09 02:43:50;;;;;;;;;;;;;;;4.51;79.02;101938.05;1841196;77;20226;-51
2022/11/09 02:46:26;;;;;;;;;;;;;;;4.53;78.92;101936.33;1856080;77;20144;-53
2022/11/09 02:48:55;;;;;;;;;;;;;;;4.57;78.85;101938.52;1862975;76;20550;-57
2022/11/09 02:51:22;;;;;;;;;;;;;;;4.59;78.79;101936.38;1863364;77;20268;-57
2022/11/09 02:53:51;;;;;;;;;;;;;;;4.57;78.81;101938.52;1859756;77;20113;-51
2022/11/09 02:56:20;;;;;;;;;;;;;;;4.56;78.82;101945.48;1863226;76;20276;-51
2022/11/09 02:58:48;;;;;;;;;;;;;;;4.56;78.91;101944.62;1863171;76;20122;-48
2022/11/09 03:01:16;;;;;;;;;;;;;;;4.57;78.90;101943.73;1862996;77;20149;-50
2022/11/09 03:03:44;;;;;;;;;;;;;;;4.60;78.84;101943.31;1862783;76;20122;-50
2022/11/09 03:06:13;;;;;;;;;;;;;;;4.62;78.82;101944.64;1863600;77;20193;-54
2022/11/09 03:08:41;;;;;;;;;;;;;;;4.66;78.85;101946.83;1862263;76;20123;-63
2022/11/09 03:11:09;;;;;;;;;;;;;;;4.68;78.90;101950.31;1863014;77;20189;-62
2022/11/09 03:13:37;;;;;;;;;;;;;;;4.66;78.97;101947.69;1863514;77;20279;-63
2022/11/09 03:16:07;;;;;;;;;;;;;;;4.67;78.91;101949.86;1863628;77;20146;-58
2022/11/09 03:18:36;;;;;;;;;;;;;;;4.68;78.90;101948.56;1864053;76;20150;-64
2022/11/09 03:21:05;;;;;;;;;;;;;;;4.67;78.92;101949.45;1864143;77;20174;-61
2022/11/09 03:23:33;;;;;;;;;;;;;;;4.68;78.95;101959.00;1864348;77;20503;-60
2022/11/09 03:26:01;;;;;;;;;;;;;;;4.69;79.03;101952.08;1865340;76;20192;-64
2022/11/09 03:28:29;;;;;;;;;;;;;;;4.72;79.05;101966.01;1862745;77;20200;-48
2022/11/09 03:30:57;;;;;;;;;;;;;;;4.73;79.08;101961.21;1863337;77;20130;-58
2022/11/09 03:33:25;;;;;;;;;;;;;;;4.77;79.05;101955.58;1863306;77;20114;-64
2022/11/09 03:35:53;;;;;;;;;;;;;;;4.80;78.99;101952.55;1862861;76;20216;-58
2022/11/09 03:38:22;;;;;;;;;;;;;;;4.86;78.83;101958.22;1863543;77;20150;-58
2022/11/09 03:40:50;;;;;;;;;;;;;;;4.91;78.70;101952.59;1862700;77;20260;-59
2022/11/09 03:43:18;;;;;;;;;;;;;;;4.94;78.54;101953.92;1863648;77;20165;-63
2022/11/09 03:45:47;;;;;;;;;;;;;;;4.97;78.44;101942.61;1862889;77;20122;-63
2022/11/09 03:48:15;;;;;;;;;;;;;;;4.98;78.38;101938.70;1856816;76;20100;-61
2022/11/09 03:50:43;;;;;;;;;;;;;;;5.02;78.34;101939.59;1838651;77;20131;-61
2022/11/09 03:53:11;;;;;;;;;;;;;;;5.05;78.27;101943.49;1849402;77;20228;-61
2022/11/09 03:55:39;;;;;;;;;;;;;;;5.07;78.22;101935.67;1844753;76;20235;-61
2022/11/09 03:58:07;;;;;;;;;;;;;;;5.07;78.25;101938.28;1843593;77;20153;-61
2022/11/09 04:00:36;;;;;;;;;;;;;;;5.06;78.20;101937.42;1851444;77;20120;-66
2022/11/09 04:03:04;;;;;;;;;;;;;;;5.05;78.16;101945.24;1840543;77;20197;-63
2022/11/09 04:05:31;;;;;;;;;;;;;;;5.06;78.14;101952.22;1844037;76;20251;-68
2022/11/09 04:07:59;;;;;;;;;;;;;;;5.07;78.12;101951.33;1852075;77;20104;-66
2022/11/09 04:10:27;;;;;;;;;;;;;;;5.07;78.09;101957.86;1807774;77;20168;-61
2022/11/09 04:12:55;;;;;;;;;;;;;;;5.06;78.18;101965.27;1829641;77;20152;-61
2022/11/09 04:15:23;;;;;;;;;;;;;;;5.08;78.26;101975.28;1841674;77;20155;-62
2022/11/09 04:17:55;;;;;;;;;;;;;;;5.11;78.30;101975.27;1845696;77;20121;-60
2022/11/09 04:20:23;;;;;;;;;;;;;;;5.11;78.22;101974.86;1853536;77;20124;-63
2022/11/09 04:22:55;;;;;;;;;;;;;;;5.10;78.14;101977.46;1841753;77;20157;-62
2022/11/09 04:25:24;;;;;;;;;;;;;;;5.10;78.15;101989.21;1843797;77;20452;-52
2022/11/09 04:27:56;;;;;;;;;;;;;;;5.11;78.15;101988.33;1843837;77;20361;-49
2022/11/09 04:30:26;;;;;;;;;;;;;;;5.12;78.08;101988.78;1854758;77;20108;-47
2022/11/09 04:32:54;;;;;;;;;;;;;;;5.14;77.99;101980.52;1859428;77;20113;-49
2022/11/09 04:35:23;;;;;;;;;;;;;;;5.13;77.94;101980.95;1834059;78;20132;-49
2022/11/09 04:37:55;;;;;;;;;;;;;;;5.12;77.87;101981.81;1834050;78;20199;-46
2022/11/09 04:40:24;;;;;;;;;;;;;;;5.11;77.80;101981.80;1833188;78;20226;-45
2022/11/09 04:42:52;;;;;;;;;;;;;;;5.10;77.79;101980.08;1834011;78;20406;-46
2022/11/09 04:45:21;;;;;;;;;;;;;;;5.11;77.74;101979.19;1840280;77;20116;-43
2022/11/09 04:47:48;;;;;;;;;;;;;;;5.11;77.69;101988.33;1865056;76;20120;-47
2022/11/09 04:50:16;;;;;;;;;;;;;;;5.12;77.70;101987.47;1888999;76;20120;-47
2022/11/09 04:52:44;;;;;;;;;;;;;;;5.15;77.69;101995.33;1888895;76;20519;-48
2022/11/09 04:55:12;;;;;;;;;;;;;;;5.14;77.76;101995.73;1888971;76;20120;-47
2022/11/09 04:57:40;;;;;;;;;;;;;;;5.14;77.81;101997.48;1888979;76;20108;-49
2022/11/09 05:00:09;;;;;;;;;;;;;;;5.13;77.96;102000.54;1888969;76;20117;-50
2022/11/09 05:02:36;;;;;;;;;;;;;;;5.16;78.02;102004.89;1888922;76;20151;-48
2022/11/09 05:05:05;;;;;;;;;;;;;;;5.17;78.01;102002.73;1880628;76;20123;-53
2022/11/09 05:07:33;;;;;;;;;;;;;;;5.21;77.94;102007.09;1862362;77;20130;-51
2022/11/09 05:10:00;;;;;;;;;;;;;;;5.22;77.90;102009.71;1862490;77;20196;-48
2022/11/09 05:12:28;;;;;;;;;;;;;;;5.22;77.87;102015.38;1858124;77;20123;-52
2022/11/09 05:14:56;;;;;;;;;;;;;;;5.23;77.81;102015.80;1852069;77;20119;-49
2022/11/09 05:17:24;;;;;;;;;;;;;;;5.22;77.86;102019.30;1854477;77;20118;-48
2022/11/09 05:19:52;;;;;;;;;;;;;;;5.22;77.91;102024.52;1858598;77;20143;-60
2022/11/09 05:25:06;;;;;;;;;;;;;;;5.25;78.08;102029.73;1881454;76;20114;-59
2022/11/09 05:27:34;;;;;;;;;;;;;;;5.33;78.11;102031.95;1862457;77;20123;-59
2022/11/09 05:30:02;;;;;;;;;;;;;;;5.43;78.09;102037.20;1862451;77;20122;-61
2022/11/09 05:32:30;;;;;;;;;;;;;;;5.52;78.06;102039.40;1862322;77;20119;-60
2022/11/09 05:34:58;;;;;;;;;;;;;;;5.65;78.00;102041.61;1862484;77;20149;-58
2022/11/09 05:37:26;;;;;;;;;;;;;;;5.78;77.98;102042.06;1862475;77;20119;-61
2022/11/09 05:39:53;;;;;;;;;;;;;;;5.93;77.87;102039.05;1862577;77;20147;-60
2022/11/09 05:42:23;;;;;;;;;;;;;;;6.05;77.60;102038.20;1862417;77;20269;-60
2022/11/09 05:44:50;;;;;;;;;;;;;;;6.16;77.41;102045.61;1862153;77;20155;-59
2022/11/09 05:47:19;;;;;;;;;;;;;;;6.28;77.31;102044.76;1857901;77;20206;-58
2022/11/09 05:49:47;;;;;;;;;;;;;;;6.34;77.30;102036.89;1831871;77;20146;-59
2022/11/09 05:52:15;;;;;;;;;;;;;;;6.42;77.40;102037.78;1838672;78;20154;-61
2022/11/09 05:54:43;;;;;;;;;;;;;;;6.53;77.35;102044.31;1838671;78;20128;-47
2022/11/09 05:57:10;;;;;;;;;;;;;;;6.66;77.12;102047.34;1838739;78;20111;-46
2022/11/09 05:59:38;;;;;;;;;;;;;;;6.78;76.95;102051.66;1834684;78;20112;-49
2022/11/09 06:02:06;;;;;;;;;;;;;;;6.91;76.73;102049.44;1836767;78;20123;-48
2022/11/09 06:04:34;;;;;;;;;;;;;;;7.03;76.52;102052.92;1837732;78;20107;-48
2022/11/09 06:07:02;;;;;;;;;;;;;;;7.14;76.33;102055.06;1837711;77;20186;-51
2022/11/09 06:09:30;;;;;;;;;;;;;;;7.23;76.23;102052.41;1838701;78;20150;-46
2022/11/09 06:11:57;;;;;;;;;;;;;;;7.32;76.16;102052.78;1838523;78;20150;-49
2022/11/09 06:14:25;;;;;;;;;;;;;;;7.43;76.04;102051.02;1835743;78;20198;-46
2022/11/09 06:16:53;;;;;;;;;;;;;;;7.54;75.94;102058.80;1807054;79;20128;-47
2022/11/09 06:19:21;;;;;;;;;;;;;;;7.61;76.03;102048.70;1809116;78;20120;-47
2022/11/09 06:21:49;;;;;;;;;;;;;;;7.73;76.01;102053.89;1838658;78;20357;-51
2022/11/09 06:24:17;;;;;;;;;;;;;;;7.83;75.92;102055.14;1838355;78;20123;-52
2022/11/09 06:26:45;;;;;;;;;;;;;;;7.92;75.82;102057.70;1838522;77;20116;-46
2022/11/09 06:29:13;;;;;;;;;;;;;;;7.93;75.77;102060.77;1846338;77;20104;-50
2022/11/09 06:31:41;;;;;;;;;;;;;;;7.98;75.76;102058.09;1835268;77;20111;-47
2022/11/09 06:34:10;;;;;;;;;;;;;;;7.97;75.75;102057.23;1838682;78;20123;-51
2022/11/09 06:36:38;;;;;;;;;;;;;;;8.03;75.74;102062.42;1838722;78;20119;-49
2022/11/09 06:39:07;;;;;;;;;;;;;;;8.10;75.68;102065.88;1838623;78;20119;-47
2022/11/09 06:41:35;;;;;;;;;;;;;;;8.14;75.61;102062.34;1838684;78;20389;-47
2022/11/09 06:44:08;;;;;;;;;;;;;;;8.16;75.60;102063.66;1838684;78;20120;-48
2022/11/09 06:46:33;;;;;;;;;;;;;;;8.17;75.57;102065.38;1838605;78;20123;-50
2022/11/09 06:49:01;;;;;;;;;;;;;;;8.16;75.54;102070.21;1836065;77;20150;-48
2022/11/09 06:51:29;;;;;;;;;;;;;;;8.11;75.68;102068.92;1855642;77;20108;-55
2022/11/09 06:53:57;;;;;;;;;;;;;;;8.10;75.62;102058.88;1856629;77;20127;-55
2022/11/09 06:56:25;;;;;;;;;;;;;;;8.10;75.56;102058.88;1843189;78;20159;-59
2022/11/09 06:58:53;;;;;;;;;;;;;;;8.09;75.57;102061.50;1854068;77;20155;-57
2022/11/09 07:01:22;;;;;;;;;;;;;;;8.12;75.66;102064.12;1844665;77;20213;-53
2022/11/09 07:03:50;;;;;;;;;;;;;;;8.13;75.76;102063.22;1835499;78;20144;-59
2022/11/09 07:06:18;;;;;;;;;;;;;;;8.17;75.80;102070.20;1837477;78;20163;-55
2022/11/09 07:08:46;;;;;;;;;;;;;;;8.25;75.72;102067.06;1840596;78;20147;-54
2022/11/09 07:11:18;;;;;;;;;;;;;;;8.32;75.46;102066.59;1846597;78;20261;-58
2022/11/09 07:13:48;;;;;;;;;;;;;;;8.44;75.41;102069.12;1846297;78;20174;-58
2022/11/09 07:16:16;;;;;;;;;;;;;;;8.61;75.27;102065.47;1852786;77;20113;-59
2022/11/09 07:18:45;;;;;;;;;;;;;;;8.78;75.07;102063.56;1860835;77;20108;-59
2022/11/09 07:21:13;;;;;;;;;;;;;;;8.86;74.90;102059.08;1861077;77;20449;-59
2022/11/09 07:23:42;;;;;;;;;;;;;;;8.94;74.91;102054.19;1860895;77;20108;-59
2022/11/09 07:26:10;;;;;;;;;;;;;;;8.99;74.92;102057.19;1847564;76;20162;-58
2022/11/09 07:28:38;;;;;;;;;;;;;;;9.13;74.80;102053.10;1846392;78;20111;-60
2022/11/09 07:31:06;;;;;;;;;;;;;;;9.34;74.36;102055.03;1846544;78;20139;-57
2022/11/09 07:33:33;;;;;;;;;;;;;;;9.60;74.14;102050.28;1846509;78;20216;-48
2022/11/09 07:36:02;;;;;;;;;;;;;;;9.92;73.79;102052.88;1846518;78;20119;-55
2022/11/09 07:38:30;;;;;;;;;;;;;;;10.09;73.58;102055.27;1846640;78;20144;-57
2022/11/09 07:41:02;;;;;;;;;;;;;;;10.18;73.45;102056.44;1846615;78;20120;-50
2022/11/09 07:43:30;;;;;;;;;;;;;;;10.21;73.25;102055.51;1846654;78;20186;-50
2022/11/09 07:46:00;;;;;;;;;;;;;;;10.17;73.29;102052.52;1846564;78;20405;-53
2022/11/09 07:48:28;;;;;;;;;;;;;;;10.12;73.43;102060.92;1846724;78;20119;-49
2022/11/09 07:50:57;;;;;;;;;;;;;;;10.07;73.58;102057.06;1841668;76;20158;-48
2022/11/09 07:53:24;;;;;;;;;;;;;;;10.00;73.74;102056.73;1838674;78;20124;-50
2022/11/09 07:55:59;;;;;;;;;;;;;;;9.99;73.69;102054.52;1838829;78;20174;-54
2022/11/09 07:58:27;;;;;;;;;;;;;;;9.97;73.76;102048.88;1808737;79;20233;-50
2022/11/09 08:00:56;;;;;;;;;;;;;;;9.95;73.86;102056.79;1808909;79;20129;-49
2022/11/09 08:03:24;;;;;;;;;;;;;;;9.86;73.86;102054.30;1808788;79;20165;-53
2022/11/09 08:05:52;;;;;;;;;;;;;;;9.80;73.94;102052.62;1808835;79;20159;-49
2022/11/09 08:08:20;;;;;;;;;;;;;;;9.71;73.96;102054.53;1833266;78;20120;-54
2022/11/09 08:10:50;;;;;;;;;;;;;;;9.72;73.96;102058.88;1838725;78;20127;-51
2022/11/09 08:13:16;;;;;;;;;;;;;;;9.76;73.93;102054.03;1838891;77;20120;-53
2022/11/09 08:15:44;;;;;;;;;;;;;;;9.79;73.50;102055.28;1838813;78;20150;-54
2022/11/09 08:18:14;;;;;;;;;;;;;;;9.87;73.24;102053.42;1838708;78;20170;-48
2022/11/09 08:20:42;;;;;;;;;;;;;;;10.04;73.08;102056.64;1838581;78;20131;-52
2022/11/09 08:23:13;;;;;;;;;;;;;;;10.18;72.91;102058.18;1838743;78;20116;-48
2022/11/09 08:25:41;;;;;;;;;;;;;;;10.28;72.57;102057.60;1855084;77;20134;-48
2022/11/09 08:28:09;;;;;;;;;;;;;;;10.46;72.33;102056.42;1862817;77;20135;-49
2022/11/09 08:30:37;;;;;;;;;;;;;;;10.62;72.14;102052.62;1838746;78;20111;-45
2022/11/09 08:33:05;;;;;;;;;;;;;;;10.91;71.74;102052.54;1838700;78;20116;-49
2022/11/09 08:35:32;;;;;;;;;;;;;;;11.07;71.15;102053.98;1838737;78;20167;-54
2022/11/09 08:38:05;;;;;;;;;;;;;;;11.15;71.19;102054.67;1838682;78;20123;-56
2022/11/09 08:40:33;;;;;;;;;;;;;;;11.15;71.17;102056.45;1838669;78;20441;-52
2022/11/09 08:43:02;;;;;;;;;;;;;;;11.06;71.60;102051.37;1838710;78;20142;-51
2022/11/09 08:45:31;;;;;;;;;;;;;;;11.02;71.85;102046.61;1838619;78;20115;-52
2022/11/09 08:48:00;;;;;;;;;;;;;;;10.98;71.75;102050.20;1838749;78;20171;-50
2022/11/09 08:50:29;;;;;;;;;;;;;;;10.92;71.72;102048.98;1844076;77;20106;-50
2022/11/09 08:52:57;;;;;;;;;;;;;;;10.84;71.68;102046.51;1864857;77;20130;-47
2022/11/09 08:55:24;;;;;;;;;;;;;;;10.76;71.67;102046.66;1864805;77;20157;-54
2022/11/09 08:57:56;;;;;;;;;;;;;;;10.69;71.70;102053.39;1864879;77;20161;-53
2022/11/09 09:00:24;;;;;;;;;;;;;;;10.65;71.67;102046.00;1864772;77;20106;-48
2022/11/09 09:02:52;;;;;;;;;;;;;;;10.61;71.80;102040.37;1864739;77;20118;-48
2022/11/09 09:05:21;;;;;;;;;;;;;;;10.58;71.97;102037.33;1864862;77;20220;-51
2022/11/09 09:07:48;;;;;;;;;;;;;;;10.53;72.18;102036.56;1864819;77;20130;-51
2022/11/09 09:10:16;;;;;;;;;;;;;;;10.51;72.26;102033.52;1864852;77;20118;-50
2022/11/09 09:12:44;;;;;;;;;;;;;;;10.46;72.31;102034.05;1864867;77;20118;-48
2022/11/09 09:15:12;;;;;;;;;;;;;;;10.46;72.31;102026.14;1864829;77;20154;-49
2022/11/09 09:17:40;;;;;;;;;;;;;;;10.41;72.22;102030.19;1864715;77;20110;-53
2022/11/09 09:20:08;;;;;;;;;;;;;;;10.34;72.43;102033.37;1864872;77;20118;-49
2022/11/09 09:22:36;;;;;;;;;;;;;;;10.38;72.31;102035.50;1864765;77;20157;-48
2022/11/09 09:25:05;;;;;;;;;;;;;;;10.39;71.86;102029.36;1864917;77;20171;-47
2022/11/09 09:27:33;;;;;;;;;;;;;;;10.40;71.57;102030.65;1864896;77;20189;-50
2022/11/09 09:30:01;;;;;;;;;;;;;;;10.43;71.74;102034.52;1864795;77;20149;-49
2022/11/09 09:32:29;;;;;;;;;;;;;;;10.45;71.89;102027.06;1864691;77;20122;-48
2022/11/09 09:34:57;;;;;;;;;;;;;;;10.45;71.73;102027.92;1864881;77;20149;-47
2022/11/09 09:37:24;;;;;;;;;;;;;;;10.46;71.78;102027.03;1864877;77;20114;-50
2022/11/09 09:39:52;;;;;;;;;;;;;;;10.47;71.85;102026.58;1864894;77;20114;-51
2022/11/09 09:42:22;;;;;;;;;;;;;;;10.48;71.88;102030.97;1864734;77;20110;-49
2022/11/09 09:44:51;;;;;;;;;;;;;;;10.45;72.04;102033.64;1864699;77;20118;-47
2022/11/09 09:47:23;;;;;;;;;;;;;;;10.45;72.03;102029.69;1864794;77;20190;-47
2022/11/09 09:49:56;;;;;;;;;;;;;;;10.41;72.19;102020.52;1864926;77;20118;-49
2022/11/09 09:52:37;;;;;;;;;;;;;;;10.41;72.26;102027.10;1851116;77;20177;-51
2022/11/09 09:55:07;;;;;;;;;;;;;;;10.39;72.33;102031.53;1846213;77;20162;-49
2022/11/09 09:57:35;;;;;;;;;;;;;;;10.42;72.34;102030.17;1846737;78;20124;-49
2022/11/09 10:00:05;;;;;;;;;;;;;;;10.41;72.21;102025.78;1846698;78;20170;-48
2022/11/09 10:02:35;;;;;;;;;;;;;;;10.41;72.17;102027.10;1847535;76;20122;-53
2022/11/09 10:05:05;;;;;;;;;;;;;;;10.42;72.18;102020.95;1846466;78;20448;-49
2022/11/09 10:07:47;;;;;;;;;;;;;;;10.42;72.17;102023.59;1846570;78;20170;-52
2022/11/09 10:10:33;;;;;;;;;;;;;;;10.43;72.18;102025.77;1845325;78;20573;-49
2022/11/09 10:13:20;;;;;;;;;;;;;;;10.38;72.22;102031.13;1846665;78;20107;-49
2022/11/09 10:15:50;;;;;;;;;;;;;;;10.34;72.28;102031.19;1846742;78;20225;-47
2022/11/09 10:18:28;;;;;;;;;;;;;;;10.31;72.10;102025.55;1846582;78;20119;-49
2022/11/09 10:20:57;;;;;;;;;;;;;;;10.30;72.00;102029.03;1845933;78;20150;-51
2022/11/09 10:23:27;;;;;;;;;;;;;;;10.30;71.93;102022.45;1846634;78;20107;-49
2022/11/09 10:25:56;;;;;;;;;;;;;;;10.30;71.86;102027.70;1846536;78;20194;-54
2022/11/09 10:28:26;;;;;;;;;;;;;;;10.31;71.84;102028.17;1845990;78;20116;-53
2022/11/09 10:30:53;;;;;;;;;;;;;;;10.32;71.78;102031.21;1846583;78;20170;-52
2022/11/09 10:33:22;;;;;;;;;;;;;;;10.31;71.78;102033.44;1846590;78;20156;-53
2022/11/09 10:36:04;;;;;;;;;;;;;;;10.29;71.88;102032.57;1846593;78;20414;-51
2022/11/09 10:38:33;;;;;;;;;;;;;;;10.30;71.87;102030.34;1844996;78;20148;-52
2022/11/09 10:41:23;;;;;;;;;;;;;;;10.30;71.83;102028.16;1846449;78;20119;-53
2022/11/09 10:44:17;;;;;;;;;;;;;;;10.31;71.77;102025.55;1837139;78;20157;-53
2022/11/09 10:47:04;;;;;;;;;;;;;;;10.32;71.77;102027.27;1846508;78;20436;-48
2022/11/09 10:50:07;;;;;;;;;;;;;;;10.30;71.75;102029.03;1846632;78;20138;-53
2022/11/09 10:52:54;;;;;;;;;;;;;;;10.31;71.60;102030.81;1846477;77;20266;-51
2022/11/09 10:55:41;;;;;;;;;;;;;;;10.33;71.57;102032.97;1846490;78;20435;-52
2022/11/09 10:58:32;;;;;;;;;;;;;;;10.35;71.58;102032.48;1846570;78;20152;-48
2022/11/09 11:01:25;;;;;;;;;;;;;;;10.38;71.57;102035.08;1846581;78;20631;-52
2022/11/09 11:04:21;;;;;;;;;;;;;;;10.36;71.61;102032.89;1816246;79;20239;-46
2022/11/09 11:07:15;;;;;;;;;;;;;;;10.40;71.46;102025.38;1816371;79;20177;-48
2022/11/09 11:10:18;;;;;;;;;;;;;;;10.45;71.34;102025.74;1816399;79;20151;-48
2022/11/09 11:13:05;;;;;;;;;;;;;;;10.39;71.43;102021.00;1829909;78;20226;-47
2022/11/09 11:15:52;;;;;;;;;;;;;;;10.37;71.37;102029.83;1846590;78;20147;-52
2022/11/09 11:18:39;;;;;;;;;;;;;;;10.33;71.56;102021.12;1846558;78;20382;-49
2022/11/09 11:21:25;;;;;;;;;;;;;;;10.30;71.63;102021.13;1846725;78;20393;-48
2022/11/09 11:24:13;;;;;;;;;;;;;;;10.24;71.30;102023.88;1846602;78;20409;-49
2022/11/09 11:27:01;;;;;;;;;;;;;;;10.25;71.39;102026.91;1816391;79;20154;-48
2022/11/09 11:29:48;;;;;;;;;;;;;;;10.19;71.53;102026.57;1816502;79;20152;-51
2022/11/09 11:32:34;;;;;;;;;;;;;;;10.17;71.45;102022.24;1816567;79;20179;-51
2022/11/09 11:35:24;;;;;;;;;;;;;;;10.19;71.29;102030.98;1842328;78;20152;-49
2022/11/09 11:38:12;;;;;;;;;;;;;;;10.18;71.40;102022.64;1846695;78;20144;-47
2022/11/09 11:41:02;;;;;;;;;;;;;;;10.18;71.47;102025.27;1845295;78;20127;-46
2022/11/09 11:44:01;;;;;;;;;;;;;;;10.21;71.39;102028.73;1846459;78;20283;-47
2022/11/09 11:46:48;;;;;;;;;;;;;;;10.26;71.21;102029.98;1846636;78;20160;-54
2022/11/09 11:49:36;;;;;;;;;;;;;;;10.30;71.21;102040.02;1846723;78;20252;-57
2022/11/09 11:52:26;;;;;;;;;;;;;;;10.31;71.09;102036.50;1852863;77;20123;-52
2022/11/09 11:55:26;;;;;;;;;;;;;;;10.31;71.11;102032.55;1864784;77;20126;-57
2022/11/09 11:58:23;;;;;;;;;;;;;;;10.29;71.16;102032.57;1864793;77;20379;-56
2022/11/09 12:01:25;;;;;;;;;;;;;;;10.21;71.25;102031.81;1864818;77;20419;-58
2022/11/09 12:04:19;;;;;;;;;;;;;;;10.21;71.43;102033.98;1841541;77;20400;-60
2022/11/09 12:07:23;;;;;;;;;;;;;;;10.22;71.49;102034.89;1864776;77;20150;-49
2022/11/09 12:10:23;;;;;;;;;;;;;;;10.22;71.40;102037.06;1864845;77;20151;-49
2022/11/09 12:13:16;;;;;;;;;;;;;;;10.23;71.25;102038.78;1864766;77;20369;-58
2022/11/09 12:16:07;;;;;;;;;;;;;;;10.22;71.06;102041.01;1864817;77;20147;-58
2022/11/09 12:18:57;;;;;;;;;;;;;;;10.22;71.08;102033.56;1864852;77;20122;-52
2022/11/09 12:22:01;;;;;;;;;;;;;;;10.24;71.10;102042.30;1864842;77;20139;-50
2022/11/09 12:24:49;;;;;;;;;;;;;;;10.26;70.99;102039.65;1864688;77;20166;-54
2022/11/09 12:27:40;;;;;;;;;;;;;;;10.17;70.84;102041.98;1864800;77;20517;-52
2022/11/09 12:30:39;;;;;;;;;;;;;;;10.09;70.97;102037.27;1864805;77;20145;-51
2022/11/09 12:33:26;;;;;;;;;;;;;;;10.09;70.96;102043.85;1864819;77;20396;-50
2022/11/09 12:36:13;;;;;;;;;;;;;;;10.04;70.86;102036.91;1864873;77;20397;-47
2022/11/09 12:39:04;;;;;;;;;;;;;;;10.04;70.87;102035.59;1864866;77;20147;-52
2022/11/09 12:41:51;;;;;;;;;;;;;;;10.05;70.93;102038.66;1856232;77;20400;-50
2022/11/09 12:44:42;;;;;;;;;;;;;;;10.02;71.01;102038.70;1864686;77;20189;-52
2022/11/09 12:47:32;;;;;;;;;;;;;;;10.00;71.02;102044.44;1864774;77;20137;-49
2022/11/09 12:50:19;;;;;;;;;;;;;;;9.98;71.02;102050.17;1864737;76;20162;-53
2022/11/09 12:53:06;;;;;;;;;;;;;;;9.98;70.99;102048.00;1864789;75;20122;-55
2022/11/09 12:55:53;;;;;;;;;;;;;;;9.97;70.96;102046.24;1864751;77;20153;-56
2022/11/09 12:58:39;;;;;;;;;;;;;;;9.95;70.94;102048.89;1864791;77;20118;-54
2022/11/09 13:01:36;;;;;;;;;;;;;;;9.93;71.10;102050.69;1864625;77;20118;-52
2022/11/09 13:04:23;;;;;;;;;;;;;;;9.93;71.08;102049.37;1864850;77;20149;-53
2022/11/09 13:07:15;;;;;;;;;;;;;;;9.93;71.22;102055.95;1864599;77;20126;-55
2022/11/09 13:09:59;;;;;;;;;;;;;;;9.93;71.25;102049.37;1864924;77;20118;-52
2022/11/09 13:12:45;;;;;;;;;;;;;;;9.93;71.24;102053.31;1864806;77;20162;-50
2022/11/09 13:15:33;;;;;;;;;;;;;;;9.90;71.20;102053.34;1864792;77;20197;-54